KRNC/RNC METAR and TAF weather

Enter ICAO airport designator
Station Type Date Time Source
KRNC METAR 2021/05/07 11:50 UTC NOAA

KRNC 071150Z AUTO 26004KT 8SM SCT015 08/07 A3012 RMK A01


Station Type Date Time Source
KRNC Decoded METAR 2021/05/07 11:50 UTC NOAA

Station name not available
May 07, 2021 - 07:50 AM EDT / 2021.05.07 1150 UTC
Wind: from the W (260 degrees) at 5 MPH (4 KT):0
Visibility: 8 mile(s):0
Sky conditions: partly cloudy
Temperature: 46 F (8 C)
Dew Point: 44 F (7 C)
Relative Humidity: 93%
Pressure (altimeter): 30.12 in. Hg (1019 hPa)
ob: KRNC 071150Z AUTO 26004KT 8SM SCT015 08/07 A3012 RMK A01
cycle: 12

Station Type Date Time Source
KRNC TAF 2009/08/31 19:45 UTC NOAA

METAR KRNC 311945Z AUTO 35008KT 10SM CLR 25/12 A3011
RMK AO1 T02500116 $

Example: see airport list